sensor_id;sensor_type;location;lat;lon;timestamp;P1;P2;P0
72023;PMS5003;59889;50.700;5.440;2023-09-08T00:01:27;6;6;
72023;PMS5003;59889;50.700;5.440;2023-09-08T00:03:53;7;7;
72023;PMS5003;59889;50.700;5.440;2023-09-08T00:06:19;6;6;
72023;PMS5003;59889;50.700;5.440;2023-09-08T00:08:44;9;9;
72023;PMS5003;59889;50.700;5.440;2023-09-08T00:11:10;8;7;
72023;PMS5003;59889;50.700;5.440;2023-09-08T00:13:36;5;5;
72023;PMS5003;59889;50.700;5.440;2023-09-08T00:16:02;7;7;
72023;PMS5003;59889;50.700;5.440;2023-09-08T00:18:28;7;6;
72023;PMS5003;59889;50.700;5.440;2023-09-08T00:20:54;8;7;
72023;PMS5003;59889;50.700;5.440;2023-09-08T00:23:19;8;7;
72023;PMS5003;59889;50.700;5.440;2023-09-08T00:25:45;8;8;
72023;PMS5003;59889;50.700;5.440;2023-09-08T00:28:11;5;5;
72023;PMS5003;59889;50.700;5.440;2023-09-08T00:30:37;9;9;
72023;PMS5003;59889;50.700;5.440;2023-09-08T00:33:03;7;7;
72023;PMS5003;59889;50.700;5.440;2023-09-08T00:35:28;8;8;
72023;PMS5003;59889;50.700;5.440;2023-09-08T00:37:54;7;7;
72023;PMS5003;59889;50.700;5.440;2023-09-08T00:40:20;7;7;
72023;PMS5003;59889;50.700;5.440;2023-09-08T00:42:46;7;7;
72023;PMS5003;59889;50.700;5.440;2023-09-08T00:45:12;6;6;
72023;PMS5003;59889;50.700;5.440;2023-09-08T00:47:38;6;6;
72023;PMS5003;59889;50.700;5.440;2023-09-08T00:50:04;7;7;
72023;PMS5003;59889;50.700;5.440;2023-09-08T00:52:29;8;8;
72023;PMS5003;59889;50.700;5.440;2023-09-08T00:54:55;5;5;
72023;PMS5003;59889;50.700;5.440;2023-09-08T00:57:21;8;8;
72023;PMS5003;59889;50.700;5.440;2023-09-08T00:59:47;8;8;
72023;PMS5003;59889;50.700;5.440;2023-09-08T01:02:12;7;7;
72023;PMS5003;59889;50.700;5.440;2023-09-08T01:04:38;7;7;
72023;PMS5003;59889;50.700;5.440;2023-09-08T01:07:04;8;7;
72023;PMS5003;59889;50.700;5.440;2023-09-08T01:09:30;7;7;
72023;PMS5003;59889;50.700;5.440;2023-09-08T01:11:56;9;8;
72023;PMS5003;59889;50.700;5.440;2023-09-08T01:14:22;8;8;
72023;PMS5003;59889;50.700;5.440;2023-09-08T01:16:47;9;9;
72023;PMS5003;59889;50.700;5.440;2023-09-08T01:19:13;8;7;
72023;PMS5003;59889;50.700;5.440;2023-09-08T01:21:44;7;6;
72023;PMS5003;59889;50.700;5.440;2023-09-08T01:24:11;8;7;
72023;PMS5003;59889;50.700;5.440;2023-09-08T01:26:31;6;6;
72023;PMS5003;59889;50.700;5.440;2023-09-08T01:28:56;6;6;
72023;PMS5003;59889;50.700;5.440;2023-09-08T01:31:22;7;7;
72023;PMS5003;59889;50.700;5.440;2023-09-08T01:33:48;7;6;
72023;PMS5003;59889;50.700;5.440;2023-09-08T01:36:14;7;7;
72023;PMS5003;59889;50.700;5.440;2023-09-08T01:38:39;8;8;
72023;PMS5003;59889;50.700;5.440;2023-09-08T01:41:05;7;7;
72023;PMS5003;59889;50.700;5.440;2023-09-08T01:43:31;7;7;
72023;PMS5003;59889;50.700;5.440;2023-09-08T01:45:57;8;8;
72023;PMS5003;59889;50.700;5.440;2023-09-08T01:48:23;8;8;
72023;PMS5003;59889;50.700;5.440;2023-09-08T01:50:48;8;7;
72023;PMS5003;59889;50.700;5.440;2023-09-08T01:53:14;7;7;
72023;PMS5003;59889;50.700;5.440;2023-09-08T01:55:40;7;6;
72023;PMS5003;59889;50.700;5.440;2023-09-08T01:58:06;7;7;
72023;PMS5003;59889;50.700;5.440;2023-09-08T02:00:32;7;7;
72023;PMS5003;59889;50.700;5.440;2023-09-08T02:02:58;9;9;
72023;PMS5003;59889;50.700;5.440;2023-09-08T02:05:23;7;7;
72023;PMS5003;59889;50.700;5.440;2023-09-08T02:07:49;5;5;
72023;PMS5003;59889;50.700;5.440;2023-09-08T02:10:15;7;7;
72023;PMS5003;59889;50.700;5.440;2023-09-08T02:12:41;8;8;
72023;PMS5003;59889;50.700;5.440;2023-09-08T02:15:07;7;7;
72023;PMS5003;59889;50.700;5.440;2023-09-08T02:17:32;8;8;
72023;PMS5003;59889;50.700;5.440;2023-09-08T02:19:58;7;7;
72023;PMS5003;59889;50.700;5.440;2023-09-08T02:22:24;8;8;
72023;PMS5003;59889;50.700;5.440;2023-09-08T02:24:50;8;8;
72023;PMS5003;59889;50.700;5.440;2023-09-08T02:27:16;11;8;
72023;PMS5003;59889;50.700;5.440;2023-09-08T02:29:41;9;9;
72023;PMS5003;59889;50.700;5.440;2023-09-08T02:32:07;7;7;
72023;PMS5003;59889;50.700;5.440;2023-09-08T02:34:34;8;8;
72023;PMS5003;59889;50.700;5.440;2023-09-08T02:36:59;7;7;
72023;PMS5003;59889;50.700;5.440;2023-09-08T02:39:25;6;6;
72023;PMS5003;59889;50.700;5.440;2023-09-08T02:41:50;8;7;
72023;PMS5003;59889;50.700;5.440;2023-09-08T02:44:16;7;7;
72023;PMS5003;59889;50.700;5.440;2023-09-08T02:46:42;8;8;
72023;PMS5003;59889;50.700;5.440;2023-09-08T02:49:08;7;7;
72023;PMS5003;59889;50.700;5.440;2023-09-08T02:51:34;8;7;
72023;PMS5003;59889;50.700;5.440;2023-09-08T02:53:59;8;8;
72023;PMS5003;59889;50.700;5.440;2023-09-08T02:56:25;8;8;
72023;PMS5003;59889;50.700;5.440;2023-09-08T02:58:51;7;6;
72023;PMS5003;59889;50.700;5.440;2023-09-08T03:01:17;7;7;
72023;PMS5003;59889;50.700;5.440;2023-09-08T03:03:43;7;7;
72023;PMS5003;59889;50.700;5.440;2023-09-08T03:06:09;6;6;
72023;PMS5003;59889;50.700;5.440;2023-09-08T03:08:34;8;8;
72023;PMS5003;59889;50.700;5.440;2023-09-08T03:11:00;9;9;
72023;PMS5003;59889;50.700;5.440;2023-09-08T03:13:26;7;7;
72023;PMS5003;59889;50.700;5.440;2023-09-08T03:15:52;7;7;
72023;PMS5003;59889;50.700;5.440;2023-09-08T03:18:18;8;8;
72023;PMS5003;59889;50.700;5.440;2023-09-08T03:20:47;7;7;
72023;PMS5003;59889;50.700;5.440;2023-09-08T03:23:09;9;9;
72023;PMS5003;59889;50.700;5.440;2023-09-08T03:25:35;9;8;
72023;PMS5003;59889;50.700;5.440;2023-09-08T03:28:01;6;6;
72023;PMS5003;59889;50.700;5.440;2023-09-08T03:30:27;7;7;
72023;PMS5003;59889;50.700;5.440;2023-09-08T03:32:53;7;7;
72023;PMS5003;59889;50.700;5.440;2023-09-08T03:35:19;8;8;
72023;PMS5003;59889;50.700;5.440;2023-09-08T03:37:44;8;8;
72023;PMS5003;59889;50.700;5.440;2023-09-08T03:40:10;7;7;
72023;PMS5003;59889;50.700;5.440;2023-09-08T03:42:36;9;9;
72023;PMS5003;59889;50.700;5.440;2023-09-08T03:45:02;7;7;
72023;PMS5003;59889;50.700;5.440;2023-09-08T03:47:28;7;7;
72023;PMS5003;59889;50.700;5.440;2023-09-08T03:49:53;8;8;
72023;PMS5003;59889;50.700;5.440;2023-09-08T03:52:19;7;6;
72023;PMS5003;59889;50.700;5.440;2023-09-08T03:54:45;8;8;
72023;PMS5003;59889;50.700;5.440;2023-09-08T03:57:11;8;8;
72023;PMS5003;59889;50.700;5.440;2023-09-08T03:59:37;6;6;
72023;PMS5003;59889;50.700;5.440;2023-09-08T04:02:03;8;8;
72023;PMS5003;59889;50.700;5.440;2023-09-08T04:04:28;8;8;
72023;PMS5003;59889;50.700;5.440;2023-09-08T04:06:54;13;12;
72023;PMS5003;59889;50.700;5.440;2023-09-08T04:09:20;14;14;
72023;PMS5003;59889;50.700;5.440;2023-09-08T04:11:46;14;13;
72023;PMS5003;59889;50.700;5.440;2023-09-08T04:14:11;15;15;
72023;PMS5003;59889;50.700;5.440;2023-09-08T04:16:37;14;14;
72023;PMS5003;59889;50.700;5.440;2023-09-08T04:19:03;12;11;
72023;PMS5003;59889;50.700;5.440;2023-09-08T04:21:29;12;12;
72023;PMS5003;59889;50.700;5.440;2023-09-08T04:23:55;12;12;
72023;PMS5003;59889;50.700;5.440;2023-09-08T04:26:21;15;14;
72023;PMS5003;59889;50.700;5.440;2023-09-08T04:28:46;14;14;
72023;PMS5003;59889;50.700;5.440;2023-09-08T04:31:12;16;16;
72023;PMS5003;59889;50.700;5.440;2023-09-08T04:33:38;16;15;
72023;PMS5003;59889;50.700;5.440;2023-09-08T04:36:03;15;14;
72023;PMS5003;59889;50.700;5.440;2023-09-08T04:38:28;14;14;
72023;PMS5003;59889;50.700;5.440;2023-09-08T04:40:54;14;14;
72023;PMS5003;59889;50.700;5.440;2023-09-08T04:43:20;16;16;
72023;PMS5003;59889;50.700;5.440;2023-09-08T04:45:45;13;13;
72023;PMS5003;59889;50.700;5.440;2023-09-08T04:48:11;16;13;
72023;PMS5003;59889;50.700;5.440;2023-09-08T04:50:37;13;13;
72023;PMS5003;59889;50.700;5.440;2023-09-08T04:53:03;13;13;
72023;PMS5003;59889;50.700;5.440;2023-09-08T04:55:29;12;12;
72023;PMS5003;59889;50.700;5.440;2023-09-08T04:57:54;13;12;
72023;PMS5003;59889;50.700;5.440;2023-09-08T05:00:20;14;13;
72023;PMS5003;59889;50.700;5.440;2023-09-08T05:02:46;15;14;
72023;PMS5003;59889;50.700;5.440;2023-09-08T05:05:12;19;18;
72023;PMS5003;59889;50.700;5.440;2023-09-08T05:07:37;15;15;
72023;PMS5003;59889;50.700;5.440;2023-09-08T05:10:03;14;14;
72023;PMS5003;59889;50.700;5.440;2023-09-08T05:12:29;14;14;
72023;PMS5003;59889;50.700;5.440;2023-09-08T05:14:54;15;14;
72023;PMS5003;59889;50.700;5.440;2023-09-08T05:17:20;13;13;
72023;PMS5003;59889;50.700;5.440;2023-09-08T05:19:46;11;11;
72023;PMS5003;59889;50.700;5.440;2023-09-08T05:22:12;15;14;
72023;PMS5003;59889;50.700;5.440;2023-09-08T05:24:38;14;13;
72023;PMS5003;59889;50.700;5.440;2023-09-08T05:27:04;14;13;
72023;PMS5003;59889;50.700;5.440;2023-09-08T05:29:30;16;15;
72023;PMS5003;59889;50.700;5.440;2023-09-08T05:31:55;14;13;
72023;PMS5003;59889;50.700;5.440;2023-09-08T05:34:21;14;14;
72023;PMS5003;59889;50.700;5.440;2023-09-08T05:36:47;14;14;
72023;PMS5003;59889;50.700;5.440;2023-09-08T05:39:13;13;13;
72023;PMS5003;59889;50.700;5.440;2023-09-08T05:41:38;15;14;
72023;PMS5003;59889;50.700;5.440;2023-09-08T05:44:04;13;13;
72023;PMS5003;59889;50.700;5.440;2023-09-08T05:46:30;14;14;
72023;PMS5003;59889;50.700;5.440;2023-09-08T05:48:56;15;15;
72023;PMS5003;59889;50.700;5.440;2023-09-08T05:51:22;17;15;
72023;PMS5003;59889;50.700;5.440;2023-09-08T05:53:48;14;13;
72023;PMS5003;59889;50.700;5.440;2023-09-08T05:56:13;14;13;
72023;PMS5003;59889;50.700;5.440;2023-09-08T05:58:39;15;14;
72023;PMS5003;59889;50.700;5.440;2023-09-08T06:01:05;15;15;
72023;PMS5003;59889;50.700;5.440;2023-09-08T06:03:30;15;15;
72023;PMS5003;59889;50.700;5.440;2023-09-08T06:05:56;16;16;
72023;PMS5003;59889;50.700;5.440;2023-09-08T06:08:22;16;16;
72023;PMS5003;59889;50.700;5.440;2023-09-08T06:10:48;17;16;
72023;PMS5003;59889;50.700;5.440;2023-09-08T06:13:14;15;15;
72023;PMS5003;59889;50.700;5.440;2023-09-08T06:15:40;16;16;
72023;PMS5003;59889;50.700;5.440;2023-09-08T06:18:05;17;16;
72023;PMS5003;59889;50.700;5.440;2023-09-08T06:20:31;15;15;
72023;PMS5003;59889;50.700;5.440;2023-09-08T06:22:57;16;15;
72023;PMS5003;59889;50.700;5.440;2023-09-08T06:25:23;16;16;
72023;PMS5003;59889;50.700;5.440;2023-09-08T06:27:49;17;17;
72023;PMS5003;59889;50.700;5.440;2023-09-08T06:30:14;14;14;
72023;PMS5003;59889;50.700;5.440;2023-09-08T06:32:40;18;18;
72023;PMS5003;59889;50.700;5.440;2023-09-08T06:35:06;15;15;
72023;PMS5003;59889;50.700;5.440;2023-09-08T06:37:34;16;16;
72023;PMS5003;59889;50.700;5.440;2023-09-08T06:39:58;17;16;
72023;PMS5003;59889;50.700;5.440;2023-09-08T06:42:23;18;17;
72023;PMS5003;59889;50.700;5.440;2023-09-08T06:44:49;16;16;
72023;PMS5003;59889;50.700;5.440;2023-09-08T06:47:15;17;16;
72023;PMS5003;59889;50.700;5.440;2023-09-08T06:49:41;15;15;
72023;PMS5003;59889;50.700;5.440;2023-09-08T06:52:07;15;15;
72023;PMS5003;59889;50.700;5.440;2023-09-08T06:54:32;16;16;
72023;PMS5003;59889;50.700;5.440;2023-09-08T06:56:58;19;18;
72023;PMS5003;59889;50.700;5.440;2023-09-08T06:59:24;16;16;
72023;PMS5003;59889;50.700;5.440;2023-09-08T07:01:50;19;18;
72023;PMS5003;59889;50.700;5.440;2023-09-08T07:04:15;16;15;
72023;PMS5003;59889;50.700;5.440;2023-09-08T07:06:41;23;23;
72023;PMS5003;59889;50.700;5.440;2023-09-08T07:09:07;16;16;
72023;PMS5003;59889;50.700;5.440;2023-09-08T07:11:32;19;19;
72023;PMS5003;59889;50.700;5.440;2023-09-08T07:13:58;16;15;
72023;PMS5003;59889;50.700;5.440;2023-09-08T07:16:23;19;17;
72023;PMS5003;59889;50.700;5.440;2023-09-08T07:18:49;16;16;
72023;PMS5003;59889;50.700;5.440;2023-09-08T07:21:15;14;13;
72023;PMS5003;59889;50.700;5.440;2023-09-08T07:23:40;15;15;
72023;PMS5003;59889;50.700;5.440;2023-09-08T07:26:06;15;14;
72023;PMS5003;59889;50.700;5.440;2023-09-08T07:28:32;14;14;
72023;PMS5003;59889;50.700;5.440;2023-09-08T07:31:00;18;16;
72023;PMS5003;59889;50.700;5.440;2023-09-08T07:33:23;15;15;
72023;PMS5003;59889;50.700;5.440;2023-09-08T07:35:48;19;19;
72023;PMS5003;59889;50.700;5.440;2023-09-08T07:38:14;14;13;
72023;PMS5003;59889;50.700;5.440;2023-09-08T07:40:40;16;16;
72023;PMS5003;59889;50.700;5.440;2023-09-08T07:43:06;19;18;
72023;PMS5003;59889;50.700;5.440;2023-09-08T07:45:31;16;16;
72023;PMS5003;59889;50.700;5.440;2023-09-08T07:47:57;19;19;
72023;PMS5003;59889;50.700;5.440;2023-09-08T07:50:23;18;17;
72023;PMS5003;59889;50.700;5.440;2023-09-08T07:52:49;16;16;
72023;PMS5003;59889;50.700;5.440;2023-09-08T07:55:14;17;16;
72023;PMS5003;59889;50.700;5.440;2023-09-08T07:57:41;14;14;
72023;PMS5003;59889;50.700;5.440;2023-09-08T08:00:06;16;16;
72023;PMS5003;59889;50.700;5.440;2023-09-08T08:02:31;18;17;
72023;PMS5003;59889;50.700;5.440;2023-09-08T08:04:56;16;15;
72023;PMS5003;59889;50.700;5.440;2023-09-08T08:07:22;17;15;
72023;PMS5003;59889;50.700;5.440;2023-09-08T08:09:48;19;18;
72023;PMS5003;59889;50.700;5.440;2023-09-08T08:12:14;16;16;
72023;PMS5003;59889;50.700;5.440;2023-09-08T08:14:39;14;14;
72023;PMS5003;59889;50.700;5.440;2023-09-08T08:17:05;21;19;
72023;PMS5003;59889;50.700;5.440;2023-09-08T08:19:31;15;15;
72023;PMS5003;59889;50.700;5.440;2023-09-08T08:21:57;15;14;
72023;PMS5003;59889;50.700;5.440;2023-09-08T08:24:23;20;18;
72023;PMS5003;59889;50.700;5.440;2023-09-08T08:26:48;14;13;
72023;PMS5003;59889;50.700;5.440;2023-09-08T08:29:14;18;16;
72023;PMS5003;59889;50.700;5.440;2023-09-08T08:31:40;12;12;
72023;PMS5003;59889;50.700;5.440;2023-09-08T08:34:06;19;18;
72023;PMS5003;59889;50.700;5.440;2023-09-08T08:36:31;15;15;
72023;PMS5003;59889;50.700;5.440;2023-09-08T08:38:57;18;17;
72023;PMS5003;59889;50.700;5.440;2023-09-08T08:41:22;23;22;
72023;PMS5003;59889;50.700;5.440;2023-09-08T08:43:48;19;17;
72023;PMS5003;59889;50.700;5.440;2023-09-08T08:46:13;17;17;
72023;PMS5003;59889;50.700;5.440;2023-09-08T08:48:39;17;16;
72023;PMS5003;59889;50.700;5.440;2023-09-08T08:51:05;18;18;
72023;PMS5003;59889;50.700;5.440;2023-09-08T08:53:31;22;21;
72023;PMS5003;59889;50.700;5.440;2023-09-08T08:55:56;18;17;
72023;PMS5003;59889;50.700;5.440;2023-09-08T08:58:21;20;18;
72023;PMS5003;59889;50.700;5.440;2023-09-08T09:00:47;19;18;
72023;PMS5003;59889;50.700;5.440;2023-09-08T09:03:12;17;17;
72023;PMS5003;59889;50.700;5.440;2023-09-08T09:05:38;17;17;
72023;PMS5003;59889;50.700;5.440;2023-09-08T09:08:04;19;18;
72023;PMS5003;59889;50.700;5.440;2023-09-08T09:10:30;21;20;
72023;PMS5003;59889;50.700;5.440;2023-09-08T09:12:55;18;18;
72023;PMS5003;59889;50.700;5.440;2023-09-08T09:20:14;17;16;
72023;PMS5003;59889;50.700;5.440;2023-09-08T09:22:39;18;17;
72023;PMS5003;59889;50.700;5.440;2023-09-08T09:25:05;16;15;
72023;PMS5003;59889;50.700;5.440;2023-09-08T09:27:30;18;18;
72023;PMS5003;59889;50.700;5.440;2023-09-08T09:29:56;17;16;
72023;PMS5003;59889;50.700;5.440;2023-09-08T09:32:23;17;17;
72023;PMS5003;59889;50.700;5.440;2023-09-08T09:34:48;17;17;
72023;PMS5003;59889;50.700;5.440;2023-09-08T09:37:13;17;17;
72023;PMS5003;59889;50.700;5.440;2023-09-08T09:39:39;17;15;
72023;PMS5003;59889;50.700;5.440;2023-09-08T09:42:05;16;16;
72023;PMS5003;59889;50.700;5.440;2023-09-08T09:44:31;16;16;
72023;PMS5003;59889;50.700;5.440;2023-09-08T09:46:57;18;17;
72023;PMS5003;59889;50.700;5.440;2023-09-08T09:49:22;17;16;
72023;PMS5003;59889;50.700;5.440;2023-09-08T09:51:49;18;16;
72023;PMS5003;59889;50.700;5.440;2023-09-08T09:54:14;17;17;
72023;PMS5003;59889;50.700;5.440;2023-09-08T09:56:40;18;18;
72023;PMS5003;59889;50.700;5.440;2023-09-08T09:59:07;19;18;
72023;PMS5003;59889;50.700;5.440;2023-09-08T10:01:31;18;18;
72023;PMS5003;59889;50.700;5.440;2023-09-08T10:03:56;17;17;
72023;PMS5003;59889;50.700;5.440;2023-09-08T10:06:22;18;17;
72023;PMS5003;59889;50.700;5.440;2023-09-08T10:08:48;17;16;
72023;PMS5003;59889;50.700;5.440;2023-09-08T10:11:14;19;18;
72023;PMS5003;59889;50.700;5.440;2023-09-08T10:13:42;17;17;
72023;PMS5003;59889;50.700;5.440;2023-09-08T10:16:05;18;17;
72023;PMS5003;59889;50.700;5.440;2023-09-08T10:18:31;19;19;
72023;PMS5003;59889;50.700;5.440;2023-09-08T10:20:57;20;20;
72023;PMS5003;59889;50.700;5.440;2023-09-08T10:23:23;20;20;
72023;PMS5003;59889;50.700;5.440;2023-09-08T10:25:48;17;17;
72023;PMS5003;59889;50.700;5.440;2023-09-08T10:28:13;22;20;
72023;PMS5003;59889;50.700;5.440;2023-09-08T10:30:39;18;18;
72023;PMS5003;59889;50.700;5.440;2023-09-08T10:33:04;20;18;
72023;PMS5003;59889;50.700;5.440;2023-09-08T10:35:30;19;19;
72023;PMS5003;59889;50.700;5.440;2023-09-08T10:40:22;21;18;
72023;PMS5003;59889;50.700;5.440;2023-09-08T10:42:47;21;20;
72023;PMS5003;59889;50.700;5.440;2023-09-08T10:45:14;17;17;
72023;PMS5003;59889;50.700;5.440;2023-09-08T10:47:41;20;19;
72023;PMS5003;59889;50.700;5.440;2023-09-08T10:50:05;19;17;
72023;PMS5003;59889;50.700;5.440;2023-09-08T10:52:30;22;20;
72023;PMS5003;59889;50.700;5.440;2023-09-08T10:54:56;19;19;
72023;PMS5003;59889;50.700;5.440;2023-09-08T10:57:22;20;20;
72023;PMS5003;59889;50.700;5.440;2023-09-08T10:59:51;19;19;
72023;PMS5003;59889;50.700;5.440;2023-09-08T11:04:39;19;18;
72023;PMS5003;59889;50.700;5.440;2023-09-08T11:07:05;17;17;
72023;PMS5003;59889;50.700;5.440;2023-09-08T11:09:35;18;18;
72023;PMS5003;59889;50.700;5.440;2023-09-08T11:11:56;22;21;
72023;PMS5003;59889;50.700;5.440;2023-09-08T11:14:22;19;19;
72023;PMS5003;59889;50.700;5.440;2023-09-08T11:16:48;19;19;
72023;PMS5003;59889;50.700;5.440;2023-09-08T11:19:13;17;16;
72023;PMS5003;59889;50.700;5.440;2023-09-08T11:21:39;18;17;
72023;PMS5003;59889;50.700;5.440;2023-09-08T11:24:05;19;19;
72023;PMS5003;59889;50.700;5.440;2023-09-08T11:26:32;18;17;
72023;PMS5003;59889;50.700;5.440;2023-09-08T11:28:55;21;18;
72023;PMS5003;59889;50.700;5.440;2023-09-08T11:31:21;18;18;
72023;PMS5003;59889;50.700;5.440;2023-09-08T11:33:48;19;18;
72023;PMS5003;59889;50.700;5.440;2023-09-08T11:36:13;20;18;
72023;PMS5003;59889;50.700;5.440;2023-09-08T11:38:39;23;22;
72023;PMS5003;59889;50.700;5.440;2023-09-08T11:41:04;19;18;
72023;PMS5003;59889;50.700;5.440;2023-09-08T11:43:30;17;17;
72023;PMS5003;59889;50.700;5.440;2023-09-08T11:45:56;18;16;
72023;PMS5003;59889;50.700;5.440;2023-09-08T11:48:22;17;17;
72023;PMS5003;59889;50.700;5.440;2023-09-08T11:50:48;17;17;
72023;PMS5003;59889;50.700;5.440;2023-09-08T11:53:18;19;19;
72023;PMS5003;59889;50.700;5.440;2023-09-08T11:55:39;16;16;
72023;PMS5003;59889;50.700;5.440;2023-09-08T11:58:04;19;19;
72023;PMS5003;59889;50.700;5.440;2023-09-08T12:00:29;16;15;
72023;PMS5003;59889;50.700;5.440;2023-09-08T12:02:55;21;19;
72023;PMS5003;59889;50.700;5.440;2023-09-08T12:05:21;19;18;
72023;PMS5003;59889;50.700;5.440;2023-09-08T12:07:45;17;16;
72023;PMS5003;59889;50.700;5.440;2023-09-08T12:10:11;17;17;
72023;PMS5003;59889;50.700;5.440;2023-09-08T12:12:42;17;17;
72023;PMS5003;59889;50.700;5.440;2023-09-08T12:15:03;18;18;
72023;PMS5003;59889;50.700;5.440;2023-09-08T12:17:29;16;16;
72023;PMS5003;59889;50.700;5.440;2023-09-08T12:19:54;19;19;
72023;PMS5003;59889;50.700;5.440;2023-09-08T12:22:20;17;16;
72023;PMS5003;59889;50.700;5.440;2023-09-08T12:24:46;18;18;
72023;PMS5003;59889;50.700;5.440;2023-09-08T12:27:11;21;20;
72023;PMS5003;59889;50.700;5.440;2023-09-08T12:29:37;20;19;
72023;PMS5003;59889;50.700;5.440;2023-09-08T12:32:03;19;16;
72023;PMS5003;59889;50.700;5.440;2023-09-08T12:34:28;16;15;
72023;PMS5003;59889;50.700;5.440;2023-09-08T12:36:55;16;16;
72023;PMS5003;59889;50.700;5.440;2023-09-08T12:39:20;17;17;
72023;PMS5003;59889;50.700;5.440;2023-09-08T12:41:46;24;20;
72023;PMS5003;59889;50.700;5.440;2023-09-08T12:44:11;15;14;
72023;PMS5003;59889;50.700;5.440;2023-09-08T12:46:37;18;18;
72023;PMS5003;59889;50.700;5.440;2023-09-08T12:49:03;18;18;
72023;PMS5003;59889;50.700;5.440;2023-09-08T12:51:29;16;16;
72023;PMS5003;59889;50.700;5.440;2023-09-08T12:53:55;17;17;
72023;PMS5003;59889;50.700;5.440;2023-09-08T12:56:20;17;17;
72023;PMS5003;59889;50.700;5.440;2023-09-08T12:58:46;14;14;
72023;PMS5003;59889;50.700;5.440;2023-09-08T13:01:12;15;15;
72023;PMS5003;59889;50.700;5.440;2023-09-08T13:03:37;16;15;
72023;PMS5003;59889;50.700;5.440;2023-09-08T13:06:03;18;17;
72023;PMS5003;59889;50.700;5.440;2023-09-08T13:08:29;15;15;
72023;PMS5003;59889;50.700;5.440;2023-09-08T13:10:55;16;16;
72023;PMS5003;59889;50.700;5.440;2023-09-08T13:13:21;18;17;
72023;PMS5003;59889;50.700;5.440;2023-09-08T13:15:47;17;16;
72023;PMS5003;59889;50.700;5.440;2023-09-08T13:18:12;15;15;
72023;PMS5003;59889;50.700;5.440;2023-09-08T13:20:38;18;16;
72023;PMS5003;59889;50.700;5.440;2023-09-08T13:23:04;16;16;
72023;PMS5003;59889;50.700;5.440;2023-09-08T13:25:29;17;17;
72023;PMS5003;59889;50.700;5.440;2023-09-08T13:27:54;16;16;
72023;PMS5003;59889;50.700;5.440;2023-09-08T13:30:20;18;16;
72023;PMS5003;59889;50.700;5.440;2023-09-08T13:32:46;15;15;
72023;PMS5003;59889;50.700;5.440;2023-09-08T13:35:12;17;15;
72023;PMS5003;59889;50.700;5.440;2023-09-08T13:37:38;16;14;
72023;PMS5003;59889;50.700;5.440;2023-09-08T13:40:04;15;15;
72023;PMS5003;59889;50.700;5.440;2023-09-08T13:42:29;17;16;
72023;PMS5003;59889;50.700;5.440;2023-09-08T13:44:55;16;15;
72023;PMS5003;59889;50.700;5.440;2023-09-08T13:47:21;17;17;
72023;PMS5003;59889;50.700;5.440;2023-09-08T13:49:46;15;14;
72023;PMS5003;59889;50.700;5.440;2023-09-08T13:52:12;15;15;
72023;PMS5003;59889;50.700;5.440;2023-09-08T13:54:38;15;15;
72023;PMS5003;59889;50.700;5.440;2023-09-08T13:57:04;13;12;
72023;PMS5003;59889;50.700;5.440;2023-09-08T13:59:30;14;14;
72023;PMS5003;59889;50.700;5.440;2023-09-08T14:01:56;16;15;
72023;PMS5003;59889;50.700;5.440;2023-09-08T14:04:22;16;14;
72023;PMS5003;59889;50.700;5.440;2023-09-08T14:06:47;16;16;
72023;PMS5003;59889;50.700;5.440;2023-09-08T14:09:13;15;15;
72023;PMS5003;59889;50.700;5.440;2023-09-08T14:11:39;15;15;
72023;PMS5003;59889;50.700;5.440;2023-09-08T14:14:05;17;15;
72023;PMS5003;59889;50.700;5.440;2023-09-08T14:16:31;15;15;
72023;PMS5003;59889;50.700;5.440;2023-09-08T14:18:56;14;14;
72023;PMS5003;59889;50.700;5.440;2023-09-08T14:21:22;13;13;
72023;PMS5003;59889;50.700;5.440;2023-09-08T14:23:48;15;15;
72023;PMS5003;59889;50.700;5.440;2023-09-08T14:26:13;13;13;
72023;PMS5003;59889;50.700;5.440;2023-09-08T14:28:39;13;13;
72023;PMS5003;59889;50.700;5.440;2023-09-08T14:31:05;15;15;
72023;PMS5003;59889;50.700;5.440;2023-09-08T14:33:31;12;12;
72023;PMS5003;59889;50.700;5.440;2023-09-08T14:35:56;14;14;
72023;PMS5003;59889;50.700;5.440;2023-09-08T14:38:22;14;14;
72023;PMS5003;59889;50.700;5.440;2023-09-08T14:43:13;13;13;
72023;PMS5003;59889;50.700;5.440;2023-09-08T14:45:39;14;13;
72023;PMS5003;59889;50.700;5.440;2023-09-08T14:48:05;14;14;
72023;PMS5003;59889;50.700;5.440;2023-09-08T14:50:31;11;11;
72023;PMS5003;59889;50.700;5.440;2023-09-08T14:52:56;16;15;
72023;PMS5003;59889;50.700;5.440;2023-09-08T14:55:22;16;13;
72023;PMS5003;59889;50.700;5.440;2023-09-08T14:57:48;13;13;
72023;PMS5003;59889;50.700;5.440;2023-09-08T15:00:14;13;12;
72023;PMS5003;59889;50.700;5.440;2023-09-08T15:02:40;14;13;
72023;PMS5003;59889;50.700;5.440;2023-09-08T15:05:06;14;13;
72023;PMS5003;59889;50.700;5.440;2023-09-08T15:07:31;13;13;
72023;PMS5003;59889;50.700;5.440;2023-09-08T15:09:57;14;13;
72023;PMS5003;59889;50.700;5.440;2023-09-08T15:12:23;14;14;
72023;PMS5003;59889;50.700;5.440;2023-09-08T15:14:49;15;15;
72023;PMS5003;59889;50.700;5.440;2023-09-08T15:17:14;14;13;
72023;PMS5003;59889;50.700;5.440;2023-09-08T15:19:40;14;13;
72023;PMS5003;59889;50.700;5.440;2023-09-08T15:22:06;11;10;
72023;PMS5003;59889;50.700;5.440;2023-09-08T15:24:32;12;12;
72023;PMS5003;59889;50.700;5.440;2023-09-08T15:26:57;16;14;
72023;PMS5003;59889;50.700;5.440;2023-09-08T15:29:23;13;13;
72023;PMS5003;59889;50.700;5.440;2023-09-08T15:31:49;13;13;
72023;PMS5003;59889;50.700;5.440;2023-09-08T15:34:15;14;13;
72023;PMS5003;59889;50.700;5.440;2023-09-08T15:36:40;15;14;
72023;PMS5003;59889;50.700;5.440;2023-09-08T15:39:06;14;13;
72023;PMS5003;59889;50.700;5.440;2023-09-08T15:41:31;12;12;
72023;PMS5003;59889;50.700;5.440;2023-09-08T15:43:57;13;13;
72023;PMS5003;59889;50.700;5.440;2023-09-08T15:46:23;16;14;
72023;PMS5003;59889;50.700;5.440;2023-09-08T15:48:49;17;15;
72023;PMS5003;59889;50.700;5.440;2023-09-08T15:51:15;13;13;
72023;PMS5003;59889;50.700;5.440;2023-09-08T15:53:40;17;17;
72023;PMS5003;59889;50.700;5.440;2023-09-08T15:56:07;13;13;
72023;PMS5003;59889;50.700;5.440;2023-09-08T15:58:32;13;12;
72023;PMS5003;59889;50.700;5.440;2023-09-08T16:00:58;13;13;
72023;PMS5003;59889;50.700;5.440;2023-09-08T16:03:24;12;12;
72023;PMS5003;59889;50.700;5.440;2023-09-08T16:05:49;17;17;
72023;PMS5003;59889;50.700;5.440;2023-09-08T16:08:15;13;13;
72023;PMS5003;59889;50.700;5.440;2023-09-08T16:10:40;16;16;
72023;PMS5003;59889;50.700;5.440;2023-09-08T16:13:06;18;18;
72023;PMS5003;59889;50.700;5.440;2023-09-08T16:15:31;15;14;
72023;PMS5003;59889;50.700;5.440;2023-09-08T16:17:57;13;12;
72023;PMS5003;59889;50.700;5.440;2023-09-08T16:20:23;14;12;
72023;PMS5003;59889;50.700;5.440;2023-09-08T16:22:49;13;13;
72023;PMS5003;59889;50.700;5.440;2023-09-08T16:25:15;14;14;
72023;PMS5003;59889;50.700;5.440;2023-09-08T16:27:41;17;16;